sensor_id;sensor_type;location;lat;lon;timestamp;temperature;humidity
63313;DHT22;49442;45.640;13.812;2023-09-19T00:00:34;22.60;99.90
63313;DHT22;49442;45.640;13.812;2023-09-19T00:03:01;22.50;99.90
63313;DHT22;49442;45.640;13.812;2023-09-19T00:05:27;22.60;99.90
63313;DHT22;49442;45.640;13.812;2023-09-19T00:07:56;22.60;99.90
63313;DHT22;49442;45.640;13.812;2023-09-19T00:10:25;22.60;99.90
63313;DHT22;49442;45.640;13.812;2023-09-19T00:12:55;22.60;99.90
63313;DHT22;49442;45.640;13.812;2023-09-19T00:15:22;22.60;99.90
63313;DHT22;49442;45.640;13.812;2023-09-19T00:17:48;22.70;99.90
63313;DHT22;49442;45.640;13.812;2023-09-19T00:20:14;22.70;99.90
63313;DHT22;49442;45.640;13.812;2023-09-19T00:22:43;22.60;99.90
63313;DHT22;49442;45.640;13.812;2023-09-19T00:25:10;22.60;99.90
63313;DHT22;49442;45.640;13.812;2023-09-19T00:27:37;22.70;99.90
63313;DHT22;49442;45.640;13.812;2023-09-19T00:30:11;22.70;99.90
63313;DHT22;49442;45.640;13.812;2023-09-19T00:32:42;22.70;99.90
63313;DHT22;49442;45.640;13.812;2023-09-19T00:35:08;22.70;99.90
63313;DHT22;49442;45.640;13.812;2023-09-19T00:37:37;22.70;99.90
63313;DHT22;49442;45.640;13.812;2023-09-19T00:40:06;22.60;99.90
63313;DHT22;49442;45.640;13.812;2023-09-19T00:42:32;22.60;99.90
63313;DHT22;49442;45.640;13.812;2023-09-19T00:44:59;22.60;99.90
63313;DHT22;49442;45.640;13.812;2023-09-19T00:47:29;22.60;99.90
63313;DHT22;49442;45.640;13.812;2023-09-19T00:49:55;22.60;99.90
63313;DHT22;49442;45.640;13.812;2023-09-19T00:52:21;22.50;99.90
63313;DHT22;49442;45.640;13.812;2023-09-19T00:54:49;22.50;99.90
63313;DHT22;49442;45.640;13.812;2023-09-19T00:57:16;22.40;99.90
63313;DHT22;49442;45.640;13.812;2023-09-19T00:59:42;22.40;99.90
63313;DHT22;49442;45.640;13.812;2023-09-19T01:02:08;22.40;99.90
63313;DHT22;49442;45.640;13.812;2023-09-19T01:04:34;22.40;99.90
63313;DHT22;49442;45.640;13.812;2023-09-19T01:07:00;22.40;99.90
63313;DHT22;49442;45.640;13.812;2023-09-19T01:09:26;22.30;99.90
63313;DHT22;49442;45.640;13.812;2023-09-19T01:11:56;22.30;99.90
63313;DHT22;49442;45.640;13.812;2023-09-19T01:17:14;22.20;99.90
63313;DHT22;49442;45.640;13.812;2023-09-19T01:20:04;22.20;99.90
63313;DHT22;49442;45.640;13.812;2023-09-19T01:30:53;22.10;99.90
63313;DHT22;49442;45.640;13.812;2023-09-19T01:33:23;22.10;99.90
63313;DHT22;49442;45.640;13.812;2023-09-19T01:35:49;22.20;99.90
63313;DHT22;49442;45.640;13.812;2023-09-19T01:38:15;22.20;99.90
63313;DHT22;49442;45.640;13.812;2023-09-19T01:40:43;22.20;99.90
63313;DHT22;49442;45.640;13.812;2023-09-19T01:43:12;22.30;99.90
63313;DHT22;49442;45.640;13.812;2023-09-19T01:45:51;22.30;99.90
63313;DHT22;49442;45.640;13.812;2023-09-19T01:48:40;22.30;99.90
63313;DHT22;49442;45.640;13.812;2023-09-19T01:51:14;22.30;99.90
63313;DHT22;49442;45.640;13.812;2023-09-19T01:57:20;22.20;99.90
63313;DHT22;49442;45.640;13.812;2023-09-19T01:59:34;22.20;99.90
63313;DHT22;49442;45.640;13.812;2023-09-19T02:02:01;22.20;99.90
63313;DHT22;49442;45.640;13.812;2023-09-19T02:04:28;22.20;99.90
63313;DHT22;49442;45.640;13.812;2023-09-19T02:06:54;22.10;99.90
63313;DHT22;49442;45.640;13.812;2023-09-19T02:09:21;22.10;99.90
63313;DHT22;49442;45.640;13.812;2023-09-19T02:11:47;22.10;99.90
63313;DHT22;49442;45.640;13.812;2023-09-19T02:14:12;22.10;99.90
63313;DHT22;49442;45.640;13.812;2023-09-19T02:16:39;22.20;99.90
63313;DHT22;49442;45.640;13.812;2023-09-19T02:19:05;22.20;99.90
63313;DHT22;49442;45.640;13.812;2023-09-19T02:21:31;22.10;99.90
63313;DHT22;49442;45.640;13.812;2023-09-19T02:23:57;22.10;99.90
63313;DHT22;49442;45.640;13.812;2023-09-19T02:26:24;22.10;99.90
63313;DHT22;49442;45.640;13.812;2023-09-19T02:28:50;22.10;99.90
63313;DHT22;49442;45.640;13.812;2023-09-19T02:31:16;22.10;99.90
63313;DHT22;49442;45.640;13.812;2023-09-19T02:33:44;22.10;99.90
63313;DHT22;49442;45.640;13.812;2023-09-19T02:36:11;22.10;99.90
63313;DHT22;49442;45.640;13.812;2023-09-19T02:38:37;22.10;99.90
63313;DHT22;49442;45.640;13.812;2023-09-19T02:41:03;22.10;99.90
63313;DHT22;49442;45.640;13.812;2023-09-19T02:43:29;22.10;99.90
63313;DHT22;49442;45.640;13.812;2023-09-19T02:45:55;22.20;99.90
63313;DHT22;49442;45.640;13.812;2023-09-19T02:48:22;22.20;99.90
63313;DHT22;49442;45.640;13.812;2023-09-19T02:50:51;22.30;99.90
63313;DHT22;49442;45.640;13.812;2023-09-19T02:53:17;22.20;99.90
63313;DHT22;49442;45.640;13.812;2023-09-19T02:55:42;22.30;99.90
63313;DHT22;49442;45.640;13.812;2023-09-19T02:58:08;22.40;99.90
63313;DHT22;49442;45.640;13.812;2023-09-19T03:00:36;22.40;99.90
63313;DHT22;49442;45.640;13.812;2023-09-19T03:03:02;22.40;99.90
63313;DHT22;49442;45.640;13.812;2023-09-19T03:05:28;22.40;99.90
63313;DHT22;49442;45.640;13.812;2023-09-19T03:07:57;22.40;99.90
63313;DHT22;49442;45.640;13.812;2023-09-19T03:10:26;22.40;99.90
63313;DHT22;49442;45.640;13.812;2023-09-19T03:12:52;22.40;99.90
63313;DHT22;49442;45.640;13.812;2023-09-19T03:15:18;22.40;99.90
63313;DHT22;49442;45.640;13.812;2023-09-19T03:17:45;22.40;99.90
63313;DHT22;49442;45.640;13.812;2023-09-19T03:20:11;22.40;99.90
63313;DHT22;49442;45.640;13.812;2023-09-19T03:22:39;22.50;99.90
63313;DHT22;49442;45.640;13.812;2023-09-19T03:25:06;22.50;99.90
63313;DHT22;49442;45.640;13.812;2023-09-19T03:27:36;22.50;99.90
63313;DHT22;49442;45.640;13.812;2023-09-19T03:30:03;22.40;99.90
63313;DHT22;49442;45.640;13.812;2023-09-19T03:32:36;22.40;99.90
63313;DHT22;49442;45.640;13.812;2023-09-19T03:35:03;22.30;99.90
63313;DHT22;49442;45.640;13.812;2023-09-19T03:37:32;22.30;99.90
63313;DHT22;49442;45.640;13.812;2023-09-19T03:40:00;22.40;99.90
63313;DHT22;49442;45.640;13.812;2023-09-19T03:42:30;22.30;99.90
63313;DHT22;49442;45.640;13.812;2023-09-19T03:44:56;22.30;99.90
63313;DHT22;49442;45.640;13.812;2023-09-19T03:47:22;22.30;99.90
63313;DHT22;49442;45.640;13.812;2023-09-19T03:49:48;22.20;99.90
63313;DHT22;49442;45.640;13.812;2023-09-19T03:52:14;22.10;99.90
63313;DHT22;49442;45.640;13.812;2023-09-19T03:54:42;22.20;99.90
63313;DHT22;49442;45.640;13.812;2023-09-19T03:57:09;22.10;99.90
63313;DHT22;49442;45.640;13.812;2023-09-19T03:59:35;22.00;99.90
63313;DHT22;49442;45.640;13.812;2023-09-19T04:02:01;22.00;99.90
63313;DHT22;49442;45.640;13.812;2023-09-19T04:04:27;22.00;99.90
63313;DHT22;49442;45.640;13.812;2023-09-19T04:06:54;22.00;99.90
63313;DHT22;49442;45.640;13.812;2023-09-19T04:09:20;22.00;99.90
63313;DHT22;49442;45.640;13.812;2023-09-19T04:11:46;22.00;99.90
63313;DHT22;49442;45.640;13.812;2023-09-19T04:14:11;21.90;99.90
63313;DHT22;49442;45.640;13.812;2023-09-19T04:16:37;21.90;99.90
63313;DHT22;49442;45.640;13.812;2023-09-19T04:19:04;21.90;99.90
63313;DHT22;49442;45.640;13.812;2023-09-19T04:21:30;21.90;99.90
63313;DHT22;49442;45.640;13.812;2023-09-19T04:23:57;21.80;99.90
63313;DHT22;49442;45.640;13.812;2023-09-19T04:26:23;21.90;99.90
63313;DHT22;49442;45.640;13.812;2023-09-19T04:28:48;22.00;99.90
63313;DHT22;49442;45.640;13.812;2023-09-19T04:31:14;22.00;99.90
63313;DHT22;49442;45.640;13.812;2023-09-19T04:33:40;22.00;99.90
63313;DHT22;49442;45.640;13.812;2023-09-19T04:36:06;22.00;99.90
63313;DHT22;49442;45.640;13.812;2023-09-19T04:38:33;21.90;99.90
63313;DHT22;49442;45.640;13.812;2023-09-19T04:40:59;21.90;99.90
63313;DHT22;49442;45.640;13.812;2023-09-19T04:43:25;21.90;99.90
63313;DHT22;49442;45.640;13.812;2023-09-19T04:45:51;21.80;99.90
63313;DHT22;49442;45.640;13.812;2023-09-19T04:48:21;21.80;99.90
63313;DHT22;49442;45.640;13.812;2023-09-19T04:50:48;21.70;99.90
63313;DHT22;49442;45.640;13.812;2023-09-19T04:53:14;21.70;99.90
63313;DHT22;49442;45.640;13.812;2023-09-19T04:55:40;21.60;99.90
63313;DHT22;49442;45.640;13.812;2023-09-19T04:58:05;21.60;99.90
63313;DHT22;49442;45.640;13.812;2023-09-19T05:00:31;21.60;99.90
63313;DHT22;49442;45.640;13.812;2023-09-19T05:03:00;21.60;99.90
63313;DHT22;49442;45.640;13.812;2023-09-19T05:05:26;21.60;99.90
63313;DHT22;49442;45.640;13.812;2023-09-19T05:07:52;21.70;99.90
63313;DHT22;49442;45.640;13.812;2023-09-19T05:10:21;21.80;99.90
63313;DHT22;49442;45.640;13.812;2023-09-19T05:12:47;21.90;99.90
63313;DHT22;49442;45.640;13.812;2023-09-19T05:15:14;22.00;99.90
63313;DHT22;49442;45.640;13.812;2023-09-19T05:17:51;22.10;99.90
63313;DHT22;49442;45.640;13.812;2023-09-19T05:20:17;22.10;99.90
63313;DHT22;49442;45.640;13.812;2023-09-19T05:23:05;22.20;99.90
63313;DHT22;49442;45.640;13.812;2023-09-19T05:25:38;22.30;99.90
63313;DHT22;49442;45.640;13.812;2023-09-19T05:28:06;22.30;99.90
63313;DHT22;49442;45.640;13.812;2023-09-19T05:30:32;22.30;99.90
63313;DHT22;49442;45.640;13.812;2023-09-19T05:32:59;22.40;99.90
63313;DHT22;49442;45.640;13.812;2023-09-19T05:35:25;22.40;99.90
63313;DHT22;49442;45.640;13.812;2023-09-19T05:37:52;22.40;99.90
63313;DHT22;49442;45.640;13.812;2023-09-19T05:40:19;22.40;99.90
63313;DHT22;49442;45.640;13.812;2023-09-19T05:42:45;22.50;99.90
63313;DHT22;49442;45.640;13.812;2023-09-19T05:45:11;22.50;99.90
63313;DHT22;49442;45.640;13.812;2023-09-19T05:47:38;22.50;99.90
63313;DHT22;49442;45.640;13.812;2023-09-19T05:50:06;22.50;99.90
63313;DHT22;49442;45.640;13.812;2023-09-19T05:52:38;22.50;99.90
63313;DHT22;49442;45.640;13.812;2023-09-19T05:55:06;22.50;99.90
63313;DHT22;49442;45.640;13.812;2023-09-19T05:57:36;22.50;99.90
63313;DHT22;49442;45.640;13.812;2023-09-19T06:00:05;22.50;99.90
63313;DHT22;49442;45.640;13.812;2023-09-19T06:02:38;22.50;99.90
63313;DHT22;49442;45.640;13.812;2023-09-19T06:05:06;22.50;99.90
63313;DHT22;49442;45.640;13.812;2023-09-19T06:07:32;22.50;99.90
63313;DHT22;49442;45.640;13.812;2023-09-19T06:10:04;22.50;99.90
63313;DHT22;49442;45.640;13.812;2023-09-19T06:12:37;22.50;99.90
63313;DHT22;49442;45.640;13.812;2023-09-19T06:15:04;22.50;99.90
63313;DHT22;49442;45.640;13.812;2023-09-19T06:17:31;22.60;99.90
63313;DHT22;49442;45.640;13.812;2023-09-19T06:19:57;22.60;99.90
63313;DHT22;49442;45.640;13.812;2023-09-19T06:22:23;22.50;99.90
63313;DHT22;49442;45.640;13.812;2023-09-19T06:24:49;22.50;99.90
63313;DHT22;49442;45.640;13.812;2023-09-19T06:27:15;22.50;99.90
63313;DHT22;49442;45.640;13.812;2023-09-19T06:29:41;22.50;99.90
63313;DHT22;49442;45.640;13.812;2023-09-19T06:32:10;22.50;99.90
63313;DHT22;49442;45.640;13.812;2023-09-19T06:34:37;22.60;99.90
63313;DHT22;49442;45.640;13.812;2023-09-19T06:37:04;22.60;99.90
63313;DHT22;49442;45.640;13.812;2023-09-19T06:39:31;22.70;99.90
63313;DHT22;49442;45.640;13.812;2023-09-19T06:41:57;22.80;99.90
63313;DHT22;49442;45.640;13.812;2023-09-19T06:44:23;22.80;99.90
63313;DHT22;49442;45.640;13.812;2023-09-19T06:46:50;22.80;99.90
63313;DHT22;49442;45.640;13.812;2023-09-19T06:49:17;22.90;99.90
63313;DHT22;49442;45.640;13.812;2023-09-19T06:51:42;22.90;99.90
63313;DHT22;49442;45.640;13.812;2023-09-19T06:54:11;23.00;99.90
63313;DHT22;49442;45.640;13.812;2023-09-19T06:56:37;23.00;99.90
63313;DHT22;49442;45.640;13.812;2023-09-19T06:59:03;23.10;99.90
63313;DHT22;49442;45.640;13.812;2023-09-19T07:01:31;23.10;99.90
63313;DHT22;49442;45.640;13.812;2023-09-19T07:03:59;23.20;99.90
63313;DHT22;49442;45.640;13.812;2023-09-19T07:06:24;23.30;99.90
63313;DHT22;49442;45.640;13.812;2023-09-19T07:08:50;23.40;99.90
63313;DHT22;49442;45.640;13.812;2023-09-19T07:11:16;23.40;99.90
63313;DHT22;49442;45.640;13.812;2023-09-19T07:13:42;23.50;99.90
63313;DHT22;49442;45.640;13.812;2023-09-19T07:16:07;23.60;99.90
63313;DHT22;49442;45.640;13.812;2023-09-19T07:18:35;23.60;99.90
63313;DHT22;49442;45.640;13.812;2023-09-19T07:21:02;23.70;99.90
63313;DHT22;49442;45.640;13.812;2023-09-19T07:23:30;23.70;99.90
63313;DHT22;49442;45.640;13.812;2023-09-19T07:26:01;23.80;99.90
63313;DHT22;49442;45.640;13.812;2023-09-19T07:28:27;23.90;99.90
63313;DHT22;49442;45.640;13.812;2023-09-19T07:30:53;24.00;99.90
63313;DHT22;49442;45.640;13.812;2023-09-19T07:33:19;24.00;99.90
63313;DHT22;49442;45.640;13.812;2023-09-19T07:35:48;24.00;99.90
63313;DHT22;49442;45.640;13.812;2023-09-19T07:38:14;24.00;99.90
63313;DHT22;49442;45.640;13.812;2023-09-19T07:40:40;24.10;99.90
63313;DHT22;49442;45.640;13.812;2023-09-19T07:43:05;24.10;99.90
63313;DHT22;49442;45.640;13.812;2023-09-19T07:45:32;24.20;99.90
63313;DHT22;49442;45.640;13.812;2023-09-19T07:47:58;24.30;99.90
63313;DHT22;49442;45.640;13.812;2023-09-19T07:50:25;24.30;99.90
63313;DHT22;49442;45.640;13.812;2023-09-19T07:52:52;24.40;99.90
63313;DHT22;49442;45.640;13.812;2023-09-19T07:55:19;24.40;99.90
63313;DHT22;49442;45.640;13.812;2023-09-19T07:57:48;24.30;99.90
63313;DHT22;49442;45.640;13.812;2023-09-19T08:00:14;24.30;99.90
63313;DHT22;49442;45.640;13.812;2023-09-19T08:02:40;24.40;99.90
63313;DHT22;49442;45.640;13.812;2023-09-19T08:05:08;24.40;99.90
63313;DHT22;49442;45.640;13.812;2023-09-19T08:07:41;24.40;99.90
63313;DHT22;49442;45.640;13.812;2023-09-19T08:10:08;24.50;99.90
63313;DHT22;49442;45.640;13.812;2023-09-19T08:12:36;24.60;99.90
63313;DHT22;49442;45.640;13.812;2023-09-19T08:15:03;24.70;99.90
63313;DHT22;49442;45.640;13.812;2023-09-19T08:17:33;24.70;99.90
63313;DHT22;49442;45.640;13.812;2023-09-19T08:19:59;24.80;99.90
63313;DHT22;49442;45.640;13.812;2023-09-19T08:22:25;24.80;99.90
63313;DHT22;49442;45.640;13.812;2023-09-19T08:24:52;24.90;99.90
63313;DHT22;49442;45.640;13.812;2023-09-19T08:27:18;24.90;99.90
63313;DHT22;49442;45.640;13.812;2023-09-19T08:29:44;24.80;99.90
63313;DHT22;49442;45.640;13.812;2023-09-19T08:32:11;24.70;99.90
63313;DHT22;49442;45.640;13.812;2023-09-19T08:34:37;25.30;99.90
63313;DHT22;49442;45.640;13.812;2023-09-19T08:37:05;26.00;99.90
63313;DHT22;49442;45.640;13.812;2023-09-19T08:39:30;25.80;99.90
63313;DHT22;49442;45.640;13.812;2023-09-19T08:41:59;25.70;99.90
63313;DHT22;49442;45.640;13.812;2023-09-19T08:44:25;25.70;99.90
63313;DHT22;49442;45.640;13.812;2023-09-19T08:46:55;25.60;99.90
63313;DHT22;49442;45.640;13.812;2023-09-19T08:52:22;25.50;99.90
63313;DHT22;49442;45.640;13.812;2023-09-19T08:54:52;25.50;99.90
63313;DHT22;49442;45.640;13.812;2023-09-19T08:57:21;25.50;99.90
63313;DHT22;49442;45.640;13.812;2023-09-19T08:59:48;25.60;99.90
63313;DHT22;49442;45.640;13.812;2023-09-19T09:02:17;25.50;99.90
63313;DHT22;49442;45.640;13.812;2023-09-19T09:04:47;25.40;99.90
63313;DHT22;49442;45.640;13.812;2023-09-19T09:07:14;25.20;99.90
63313;DHT22;49442;45.640;13.812;2023-09-19T09:09:42;25.10;99.90
63313;DHT22;49442;45.640;13.812;2023-09-19T09:12:13;24.90;99.90
63313;DHT22;49442;45.640;13.812;2023-09-19T09:14:48;24.80;99.90
63313;DHT22;49442;45.640;13.812;2023-09-19T09:17:16;24.70;99.90
63313;DHT22;49442;45.640;13.812;2023-09-19T09:19:48;24.70;99.90
63313;DHT22;49442;45.640;13.812;2023-09-19T09:22:14;24.60;99.90
63313;DHT22;49442;45.640;13.812;2023-09-19T09:24:55;24.60;99.90
63313;DHT22;49442;45.640;13.812;2023-09-19T09:27:24;24.80;99.90
63313;DHT22;49442;45.640;13.812;2023-09-19T09:29:51;24.80;99.90
63313;DHT22;49442;45.640;13.812;2023-09-19T09:32:18;24.80;99.90
63313;DHT22;49442;45.640;13.812;2023-09-19T09:34:44;25.00;99.90
63313;DHT22;49442;45.640;13.812;2023-09-19T09:37:17;25.10;99.90
63313;DHT22;49442;45.640;13.812;2023-09-19T09:39:54;25.30;99.90
63313;DHT22;49442;45.640;13.812;2023-09-19T09:42:35;25.50;99.90
63313;DHT22;49442;45.640;13.812;2023-09-19T09:45:22;25.80;99.90
63313;DHT22;49442;45.640;13.812;2023-09-19T09:48:03;25.80;99.90
63313;DHT22;49442;45.640;13.812;2023-09-19T09:50:35;25.70;99.90
63313;DHT22;49442;45.640;13.812;2023-09-19T09:53:26;25.50;99.90
63313;DHT22;49442;45.640;13.812;2023-09-19T09:58:25;24.40;99.90
63313;DHT22;49442;45.640;13.812;2023-09-19T10:00:58;24.00;99.90
63313;DHT22;49442;45.640;13.812;2023-09-19T10:03:39;23.40;99.90
63313;DHT22;49442;45.640;13.812;2023-09-19T10:06:12;23.00;99.90
63313;DHT22;49442;45.640;13.812;2023-09-19T10:09:09;22.70;99.90
63313;DHT22;49442;45.640;13.812;2023-09-19T10:11:57;22.40;99.90
63313;DHT22;49442;45.640;13.812;2023-09-19T10:14:30;22.20;99.90
63313;DHT22;49442;45.640;13.812;2023-09-19T10:16:59;22.10;99.90
63313;DHT22;49442;45.640;13.812;2023-09-19T10:19:54;22.00;99.90
63313;DHT22;49442;45.640;13.812;2023-09-19T10:22:24;21.80;99.90
63313;DHT22;49442;45.640;13.812;2023-09-19T10:24:53;21.80;99.90
63313;DHT22;49442;45.640;13.812;2023-09-19T10:27:20;21.70;99.90
63313;DHT22;49442;45.640;13.812;2023-09-19T10:29:49;21.70;99.90
63313;DHT22;49442;45.640;13.812;2023-09-19T10:32:19;21.70;99.90
63313;DHT22;49442;45.640;13.812;2023-09-19T10:34:50;21.70;99.90
63313;DHT22;49442;45.640;13.812;2023-09-19T10:37:20;21.70;99.90
63313;DHT22;49442;45.640;13.812;2023-09-19T10:39:48;21.90;99.90
63313;DHT22;49442;45.640;13.812;2023-09-19T10:42:19;22.10;99.90
63313;DHT22;49442;45.640;13.812;2023-09-19T10:44:47;22.40;99.90
63313;DHT22;49442;45.640;13.812;2023-09-19T10:47:19;22.70;99.90
63313;DHT22;49442;45.640;13.812;2023-09-19T10:49:46;23.00;99.90
63313;DHT22;49442;45.640;13.812;2023-09-19T10:52:14;23.30;99.90
63313;DHT22;49442;45.640;13.812;2023-09-19T10:54:47;23.50;99.90
63313;DHT22;49442;45.640;13.812;2023-09-19T10:57:21;23.80;99.90
63313;DHT22;49442;45.640;13.812;2023-09-19T11:00:02;23.90;99.90
63313;DHT22;49442;45.640;13.812;2023-09-19T11:03:16;24.00;99.90
63313;DHT22;49442;45.640;13.812;2023-09-19T11:06:03;24.30;99.90
63313;DHT22;49442;45.640;13.812;2023-09-19T11:11:42;24.60;99.90
63313;DHT22;49442;45.640;13.812;2023-09-19T11:30:34;25.10;99.90
63313;DHT22;49442;45.640;13.812;2023-09-19T11:33:23;25.10;99.90
63313;DHT22;49442;45.640;13.812;2023-09-19T11:36:13;25.20;99.90
63313;DHT22;49442;45.640;13.812;2023-09-19T11:46:27;25.50;99.90
63313;DHT22;49442;45.640;13.812;2023-09-19T11:48:53;25.60;99.90
63313;DHT22;49442;45.640;13.812;2023-09-19T11:51:23;25.70;99.90
63313;DHT22;49442;45.640;13.812;2023-09-19T11:56:26;25.70;99.90
63313;DHT22;49442;45.640;13.812;2023-09-19T11:58:57;25.80;99.90
63313;DHT22;49442;45.640;13.812;2023-09-19T12:01:33;25.80;99.90
63313;DHT22;49442;45.640;13.812;2023-09-19T12:04:01;25.80;99.90
63313;DHT22;49442;45.640;13.812;2023-09-19T12:06:30;25.80;99.90
63313;DHT22;49442;45.640;13.812;2023-09-19T12:08:57;25.80;99.90
63313;DHT22;49442;45.640;13.812;2023-09-19T12:11:29;25.90;99.90
63313;DHT22;49442;45.640;13.812;2023-09-19T12:13:58;25.90;99.90
63313;DHT22;49442;45.640;13.812;2023-09-19T12:16:26;25.90;99.90
63313;DHT22;49442;45.640;13.812;2023-09-19T12:18:56;25.90;99.90
63313;DHT22;49442;45.640;13.812;2023-09-19T12:21:28;26.00;99.90
63313;DHT22;49442;45.640;13.812;2023-09-19T12:26:27;26.00;99.90
63313;DHT22;49442;45.640;13.812;2023-09-19T12:28:54;26.10;99.90
63313;DHT22;49442;45.640;13.812;2023-09-19T12:31:21;26.10;99.90
63313;DHT22;49442;45.640;13.812;2023-09-19T12:33:56;26.20;99.90
63313;DHT22;49442;45.640;13.812;2023-09-19T12:36:23;26.20;99.90
63313;DHT22;49442;45.640;13.812;2023-09-19T12:38:56;26.20;99.90
63313;DHT22;49442;45.640;13.812;2023-09-19T12:41:25;26.30;99.90
63313;DHT22;49442;45.640;13.812;2023-09-19T12:43:54;26.30;99.90
63313;DHT22;49442;45.640;13.812;2023-09-19T12:46:24;26.30;99.90
63313;DHT22;49442;45.640;13.812;2023-09-19T12:49:19;26.40;99.90
63313;DHT22;49442;45.640;13.812;2023-09-19T12:51:49;26.40;99.90
63313;DHT22;49442;45.640;13.812;2023-09-19T12:54:15;26.40;99.90
63313;DHT22;49442;45.640;13.812;2023-09-19T12:56:45;26.40;99.90
63313;DHT22;49442;45.640;13.812;2023-09-19T12:59:13;26.30;99.90
63313;DHT22;49442;45.640;13.812;2023-09-19T13:01:40;26.20;99.90
63313;DHT22;49442;45.640;13.812;2023-09-19T13:04:19;26.30;99.90
63313;DHT22;49442;45.640;13.812;2023-09-19T13:06:49;26.40;99.90
63313;DHT22;49442;45.640;13.812;2023-09-19T13:09:24;26.50;99.90
63313;DHT22;49442;45.640;13.812;2023-09-19T13:11:54;26.60;99.90
63313;DHT22;49442;45.640;13.812;2023-09-19T13:14:29;26.50;99.90
63313;DHT22;49442;45.640;13.812;2023-09-19T13:17:09;26.60;99.90
63313;DHT22;49442;45.640;13.812;2023-09-19T13:19:51;26.50;99.90
63313;DHT22;49442;45.640;13.812;2023-09-19T13:22:42;26.50;99.90
63313;DHT22;49442;45.640;13.812;2023-09-19T13:25:17;26.50;99.90
63313;DHT22;49442;45.640;13.812;2023-09-19T13:27:51;26.50;99.90
63313;DHT22;49442;45.640;13.812;2023-09-19T13:30:20;26.60;99.90
63313;DHT22;49442;45.640;13.812;2023-09-19T13:32:46;26.60;99.90
63313;DHT22;49442;45.640;13.812;2023-09-19T13:35:15;26.50;99.90
63313;DHT22;49442;45.640;13.812;2023-09-19T13:37:42;26.60;99.90
63313;DHT22;49442;45.640;13.812;2023-09-19T13:40:09;26.60;99.90
63313;DHT22;49442;45.640;13.812;2023-09-19T13:42:36;26.70;99.90
63313;DHT22;49442;45.640;13.812;2023-09-19T13:45:05;26.70;99.90
63313;DHT22;49442;45.640;13.812;2023-09-19T13:47:34;26.80;99.90
63313;DHT22;49442;45.640;13.812;2023-09-19T13:50:02;26.70;99.90
63313;DHT22;49442;45.640;13.812;2023-09-19T13:52:30;26.80;99.90
63313;DHT22;49442;45.640;13.812;2023-09-19T13:54:57;26.80;99.90
63313;DHT22;49442;45.640;13.812;2023-09-19T13:57:23;26.80;99.90
63313;DHT22;49442;45.640;13.812;2023-09-19T13:59:49;26.90;99.90
63313;DHT22;49442;45.640;13.812;2023-09-19T14:02:15;26.90;99.90
63313;DHT22;49442;45.640;13.812;2023-09-19T14:04:44;27.00;99.90
63313;DHT22;49442;45.640;13.812;2023-09-19T14:07:09;26.90;99.90
63313;DHT22;49442;45.640;13.812;2023-09-19T14:09:36;26.90;99.90
63313;DHT22;49442;45.640;13.812;2023-09-19T14:12:03;27.00;99.90
63313;DHT22;49442;45.640;13.812;2023-09-19T14:14:28;26.90;99.90
63313;DHT22;49442;45.640;13.812;2023-09-19T14:16:54;27.00;99.90
63313;DHT22;49442;45.640;13.812;2023-09-19T14:19:20;27.00;99.90
63313;DHT22;49442;45.640;13.812;2023-09-19T14:21:46;26.80;99.90
63313;DHT22;49442;45.640;13.812;2023-09-19T14:24:17;26.70;99.90
63313;DHT22;49442;45.640;13.812;2023-09-19T14:26:43;26.60;99.90
63313;DHT22;49442;45.640;13.812;2023-09-19T14:29:09;26.50;99.90
63313;DHT22;49442;45.640;13.812;2023-09-19T14:31:38;26.40;99.90
63313;DHT22;49442;45.640;13.812;2023-09-19T14:34:05;26.50;99.90
63313;DHT22;49442;45.640;13.812;2023-09-19T14:36:32;26.50;99.90
63313;DHT22;49442;45.640;13.812;2023-09-19T14:38:58;26.60;99.90
63313;DHT22;49442;45.640;13.812;2023-09-19T14:41:25;26.70;99.90
63313;DHT22;49442;45.640;13.812;2023-09-19T14:43:51;26.70;99.90
63313;DHT22;49442;45.640;13.812;2023-09-19T14:46:18;26.70;99.90
63313;DHT22;49442;45.640;13.812;2023-09-19T14:48:45;26.70;99.90
63313;DHT22;49442;45.640;13.812;2023-09-19T14:51:14;26.60;99.90
63313;DHT22;49442;45.640;13.812;2023-09-19T14:53:40;26.50;99.90
63313;DHT22;49442;45.640;13.812;2023-09-19T14:56:10;26.50;99.90
63313;DHT22;49442;45.640;13.812;2023-09-19T14:58:36;26.60;99.90
63313;DHT22;49442;45.640;13.812;2023-09-19T15:01:09;26.60;99.90
63313;DHT22;49442;45.640;13.812;2023-09-19T15:03:38;26.60;99.90
63313;DHT22;49442;45.640;13.812;2023-09-19T15:06:12;26.60;99.90
63313;DHT22;49442;45.640;13.812;2023-09-19T15:08:44;26.70;99.90
63313;DHT22;49442;45.640;13.812;2023-09-19T15:11:16;26.80;99.90
63313;DHT22;49442;45.640;13.812;2023-09-19T15:13:43;26.80;99.90
63313;DHT22;49442;45.640;13.812;2023-09-19T15:16:10;26.80;99.90
63313;DHT22;49442;45.640;13.812;2023-09-19T15:18:37;26.80;99.90
63313;DHT22;49442;45.640;13.812;2023-09-19T15:21:21;26.60;99.90
63313;DHT22;49442;45.640;13.812;2023-09-19T15:23:46;26.50;99.90
63313;DHT22;49442;45.640;13.812;2023-09-19T15:26:13;26.50;99.90
63313;DHT22;49442;45.640;13.812;2023-09-19T15:28:42;26.40;99.90
63313;DHT22;49442;45.640;13.812;2023-09-19T15:31:10;26.30;99.90
63313;DHT22;49442;45.640;13.812;2023-09-19T15:33:36;26.20;99.90
63313;DHT22;49442;45.640;13.812;2023-09-19T15:36:11;26.10;99.90
63313;DHT22;49442;45.640;13.812;2023-09-19T15:39:03;26.00;99.90
63313;DHT22;49442;45.640;13.812;2023-09-19T15:41:34;25.90;99.90
63313;DHT22;49442;45.640;13.812;2023-09-19T15:44:01;25.80;99.90
63313;DHT22;49442;45.640;13.812;2023-09-19T15:46:27;25.60;99.90
63313;DHT22;49442;45.640;13.812;2023-09-19T15:48:55;25.50;99.90
63313;DHT22;49442;45.640;13.812;2023-09-19T15:51:21;25.50;99.90
63313;DHT22;49442;45.640;13.812;2023-09-19T15:53:49;25.50;99.90
63313;DHT22;49442;45.640;13.812;2023-09-19T15:56:16;25.50;99.90
63313;DHT22;49442;45.640;13.812;2023-09-19T15:58:47;25.40;99.90
63313;DHT22;49442;45.640;13.812;2023-09-19T16:01:14;25.30;99.90
63313;DHT22;49442;45.640;13.812;2023-09-19T16:03:51;25.20;99.90
63313;DHT22;49442;45.640;13.812;2023-09-19T16:06:22;25.10;99.90
63313;DHT22;49442;45.640;13.812;2023-09-19T16:08:52;25.00;99.90
63313;DHT22;49442;45.640;13.812;2023-09-19T16:11:19;25.00;99.90
63313;DHT22;49442;45.640;13.812;2023-09-19T16:13:51;25.00;99.90
63313;DHT22;49442;45.640;13.812;2023-09-19T16:16:19;24.90;99.90
63313;DHT22;49442;45.640;13.812;2023-09-19T16:18:52;24.90;99.90